Time;durP1;ratioP1;P1;durP2;ratioP2;P2;SDS_P1;SDS_P2;PMS_P1;PMS_P2;Temp;Humidity;BMP_temperature;BMP_pressure;BME280_temperature;BME280_humidity;BME280_pressure;Samples;Min_cycle;Max_cycle;Signal;HPM_P1;HPM_P2
2023/12/14 00:00:08;;;;;;;9.40;8.40;;;;;;;;;;5009342;28;20049;-80
2023/12/14 00:02:43;;;;;;;8.68;7.88;;;;;;;;;;5002357;28;20045;-79
2023/12/14 00:05:11;;;;;;;9.75;8.45;;;;;;;;;;4994427;28;20108;-79
2023/12/14 00:07:40;;;;;;;8.57;7.13;;;;;;;;;;4978234;28;20249;-79
2023/12/14 00:10:12;;;;;;;10.23;8.98;;;;;;;;;;5034017;28;20044;-80
2023/12/14 00:12:42;;;;;;;9.43;8.48;;;;;;;;;;5010100;28;20064;-79
2023/12/14 00:15:10;;;;;;;9.38;8.02;;;;;;;;;;5032540;28;20038;-80
2023/12/14 00:17:40;;;;;;;11.32;8.90;;;;;;;;;;4998790;28;20046;-80
2023/12/14 00:20:10;;;;;;;9.63;8.57;;;;;;;;;;5018813;28;20045;-80
2023/12/14 00:22:42;;;;;;;8.93;8.02;;;;;;;;;;4998722;28;20042;-79
2023/12/14 00:25:11;;;;;;;10.63;9.18;;;;;;;;;;5022434;28;20041;-80
2023/12/14 00:27:42;;;;;;;12.43;8.63;;;;;;;;;;5014671;28;20042;-80
2023/12/14 00:30:10;;;;;;;12.20;8.98;;;;;;;;;;5015113;28;20053;-80
2023/12/14 00:33:08;;;;;;;12.25;10.30;;;;;;;;;;5036296;28;20060;-79
2023/12/14 00:35:37;;;;;;;12.15;9.25;;;;;;;;;;5032510;28;20046;-80
2023/12/14 00:38:05;;;;;;;11.50;10.05;;;;;;;;;;4988941;28;20038;-80
2023/12/14 00:40:43;;;;;;;12.68;9.65;;;;;;;;;;5018078;28;20057;-80
2023/12/14 00:43:12;;;;;;;16.70;10.25;;;;;;;;;;4999969;28;20389;-79
2023/12/14 00:45:41;;;;;;;9.93;8.93;;;;;;;;;;4996373;28;20042;-80
2023/12/14 00:48:08;;;;;;;9.50;7.68;;;;;;;;;;5022373;28;20052;-80
2023/12/14 00:50:37;;;;;;;10.50;8.82;;;;;;;;;;4997782;28;20045;-80
2023/12/14 00:53:05;;;;;;;10.85;9.18;;;;;;;;;;4999638;28;20046;-80
2023/12/14 00:55:33;;;;;;;11.05;9.45;;;;;;;;;;5007803;28;20045;-80
2023/12/14 00:58:03;;;;;;;9.98;8.52;;;;;;;;;;5020969;28;20061;-80
2023/12/14 01:00:32;;;;;;;8.52;7.65;;;;;;;;;;5031091;28;20041;-80
2023/12/14 01:03:04;;;;;;;9.38;8.45;;;;;;;;;;5035115;28;20049;-79
2023/12/14 01:05:32;;;;;;;8.45;7.63;;;;;;;;;;5005284;28;20049;-80
2023/12/14 01:07:59;;;;;;;9.73;8.25;;;;;;;;;;5029675;28;20053;-79
2023/12/14 01:10:31;;;;;;;10.00;8.70;;;;;;;;;;5014497;28;20284;-80
2023/12/14 01:12:58;;;;;;;9.35;7.63;;;;;;;;;;5029084;28;20056;-80
2023/12/14 01:15:26;;;;;;;9.68;8.68;;;;;;;;;;4999322;28;20061;-79
2023/12/14 01:17:53;;;;;;;9.23;8.13;;;;;;;;;;5003883;28;20045;-80
2023/12/14 01:20:21;;;;;;;8.15;7.15;;;;;;;;;;5012680;28;20049;-80
2023/12/14 01:22:51;;;;;;;10.25;8.13;;;;;;;;;;5029033;28;20560;-79
2023/12/14 01:25:18;;;;;;;12.90;9.52;;;;;;;;;;5016185;28;20053;-79
2023/12/14 01:27:47;;;;;;;11.10;8.48;;;;;;;;;;5029427;28;20037;-79
2023/12/14 01:30:19;;;;;;;11.18;8.77;;;;;;;;;;5018296;28;20050;-80
2023/12/14 01:32:49;;;;;;;13.13;10.15;;;;;;;;;;4994594;28;20123;-79
2023/12/14 01:35:18;;;;;;;13.15;10.23;;;;;;;;;;5015148;28;20057;-80
2023/12/14 01:37:47;;;;;;;12.30;10.20;;;;;;;;;;5012288;28;20052;-80
2023/12/14 01:40:14;;;;;;;14.20;9.13;;;;;;;;;;5019391;28;20041;-80
2023/12/14 01:42:46;;;;;;;13.10;9.45;;;;;;;;;;5034686;28;20060;-80
2023/12/14 01:45:16;;;;;;;10.88;9.10;;;;;;;;;;5014282;28;20061;-79
2023/12/14 01:47:44;;;;;;;12.25;9.60;;;;;;;;;;5031016;28;20481;-79
2023/12/14 01:50:12;;;;;;;11.15;9.50;;;;;;;;;;5036964;28;20064;-80
2023/12/14 01:52:39;;;;;;;10.10;8.75;;;;;;;;;;5025111;23;20420;-79
2023/12/14 01:55:09;;;;;;;11.13;8.55;;;;;;;;;;4998171;28;20050;-78
2023/12/14 01:57:36;;;;;;;10.02;8.93;;;;;;;;;;5005833;28;20049;-78
2023/12/14 02:00:07;;;;;;;11.63;9.63;;;;;;;;;;4995817;28;20511;-78
2023/12/14 02:02:38;;;;;;;9.85;8.90;;;;;;;;;;4994135;28;20570;-78
2023/12/14 02:05:07;;;;;;;10.30;8.55;;;;;;;;;;4994049;28;20080;-78
2023/12/14 02:07:37;;;;;;;10.93;8.52;;;;;;;;;;4991795;28;20053;-78
2023/12/14 02:10:07;;;;;;;11.02;9.10;;;;;;;;;;5011241;28;20057;-77
2023/12/14 02:12:37;;;;;;;10.43;7.93;;;;;;;;;;5010576;28;20049;-78
2023/12/14 02:15:08;;;;;;;10.43;8.52;;;;;;;;;;5028203;28;20053;-77
2023/12/14 02:17:37;;;;;;;10.45;9.38;;;;;;;;;;5003784;28;20447;-77
2023/12/14 02:20:05;;;;;;;8.10;7.30;;;;;;;;;;4992939;28;20057;-77
2023/12/14 02:22:37;;;;;;;11.77;9.30;;;;;;;;;;5010652;28;20049;-79
2023/12/14 02:25:05;;;;;;;13.77;9.32;;;;;;;;;;5009160;28;20518;-79
2023/12/14 02:27:34;;;;;;;12.90;8.80;;;;;;;;;;5009497;28;20046;-79
2023/12/14 02:30:01;;;;;;;9.80;8.52;;;;;;;;;;4995739;28;20388;-79
2023/12/14 02:32:31;;;;;;;11.13;9.32;;;;;;;;;;5028340;28;20040;-79
2023/12/14 02:34:58;;;;;;;9.55;7.65;;;;;;;;;;5008274;28;20050;-79
2023/12/14 02:37:25;;;;;;;8.45;7.65;;;;;;;;;;4992557;28;20054;-79
2023/12/14 02:39:56;;;;;;;11.30;8.80;;;;;;;;;;4995220;28;20052;-77
2023/12/14 02:42:23;;;;;;;12.68;9.60;;;;;;;;;;5027984;28;20049;-77
2023/12/14 02:44:52;;;;;;;8.52;7.63;;;;;;;;;;5004227;28;20162;-77
2023/12/14 02:47:20;;;;;;;13.60;8.90;;;;;;;;;;5004621;28;20044;-77
2023/12/14 02:49:49;;;;;;;9.77;7.80;;;;;;;;;;5019905;28;20042;-77
2023/12/14 02:52:16;;;;;;;12.07;9.95;;;;;;;;;;5008656;28;20057;-77
2023/12/14 02:54:46;;;;;;;10.25;8.32;;;;;;;;;;5023304;28;20416;-77
2023/12/14 02:57:17;;;;;;;10.40;9.15;;;;;;;;;;5025456;28;20052;-77
2023/12/14 02:59:44;;;;;;;12.88;10.70;;;;;;;;;;5023747;28;20064;-77
2023/12/14 03:02:14;;;;;;;14.15;9.70;;;;;;;;;;5009701;28;20056;-78
2023/12/14 03:04:41;;;;;;;11.15;9.93;;;;;;;;;;5024644;28;20045;-78
2023/12/14 03:07:11;;;;;;;10.38;9.35;;;;;;;;;;5008986;28;20060;-78
2023/12/14 03:09:41;;;;;;;12.23;10.02;;;;;;;;;;5019856;28;20049;-78
2023/12/14 03:12:08;;;;;;;13.13;10.43;;;;;;;;;;5008209;28;20054;-78
2023/12/14 03:14:40;;;;;;;13.27;10.68;;;;;;;;;;5009190;28;20408;-78
2023/12/14 03:17:12;;;;;;;12.70;9.93;;;;;;;;;;5009786;28;20057;-78
2023/12/14 03:19:40;;;;;;;12.02;9.63;;;;;;;;;;5008149;28;20063;-78
2023/12/14 03:22:10;;;;;;;15.32;11.50;;;;;;;;;;5018888;28;20408;-78
2023/12/14 03:24:37;;;;;;;10.38;8.63;;;;;;;;;;5023146;28;20393;-78
2023/12/14 03:27:05;;;;;;;13.45;9.43;;;;;;;;;;5007054;28;20052;-78
2023/12/14 03:29:35;;;;;;;11.48;9.10;;;;;;;;;;5023817;28;20064;-78
2023/12/14 03:32:07;;;;;;;10.95;9.20;;;;;;;;;;5008001;28;20056;-78
2023/12/14 03:34:39;;;;;;;;;;;;;;;;;;5028407;28;20048;-78
2023/12/14 03:37:06;;;;;;;10.90;8.77;;;;;;;;;;5008635;28;20407;-78
2023/12/14 03:39:33;;;;;;;15.13;8.90;;;;;;;;;;5007277;28;20053;-78
2023/12/14 03:42:02;;;;;;;12.35;9.77;;;;;;;;;;5008844;28;20057;-78
2023/12/14 03:44:30;;;;;;;12.68;11.32;;;;;;;;;;5022642;28;20387;-78
2023/12/14 03:47:00;;;;;;;11.30;9.95;;;;;;;;;;5022465;28;20049;-78
2023/12/14 03:49:28;;;;;;;13.50;10.32;;;;;;;;;;5008343;28;20045;-78
2023/12/14 03:52:00;;;;;;;11.85;10.65;;;;;;;;;;5025049;28;20410;-78
2023/12/14 03:54:30;;;;;;;11.73;9.60;;;;;;;;;;5008216;28;20056;-78
2023/12/14 03:57:00;;;;;;;13.05;10.43;;;;;;;;;;5010259;28;20056;-78
2023/12/14 03:59:32;;;;;;;13.18;9.90;;;;;;;;;;5024855;28;20060;-78
2023/12/14 04:01:59;;;;;;;11.32;9.55;;;;;;;;;;5025596;28;20392;-78
2023/12/14 04:04:26;;;;;;;13.50;11.60;;;;;;;;;;5009073;28;20056;-78
2023/12/14 04:06:55;;;;;;;16.17;11.52;;;;;;;;;;5005782;28;20056;-78
2023/12/14 04:09:22;;;;;;;13.07;11.00;;;;;;;;;;5019433;28;20060;-78
2023/12/14 04:11:49;;;;;;;12.27;10.40;;;;;;;;;;5003396;28;20049;-78
2023/12/14 04:14:16;;;;;;;14.27;10.48;;;;;;;;;;5005086;28;20495;-78
2023/12/14 04:16:44;;;;;;;13.43;11.20;;;;;;;;;;5025593;28;20053;-78
2023/12/14 04:19:13;;;;;;;13.82;10.90;;;;;;;;;;5009905;28;20052;-78
2023/12/14 04:21:42;;;;;;;14.80;11.48;;;;;;;;;;5010584;28;20057;-78
2023/12/14 04:24:13;;;;;;;16.17;10.68;;;;;;;;;;5006399;28;20057;-78
2023/12/14 04:26:43;;;;;;;14.27;11.20;;;;;;;;;;5023692;28;20046;-78
2023/12/14 04:29:13;;;;;;;13.70;11.70;;;;;;;;;;5022997;28;20041;-78
2023/12/14 04:31:40;;;;;;;13.70;10.63;;;;;;;;;;5003847;28;20050;-78
2023/12/14 04:34:14;;;;;;;14.02;11.00;;;;;;;;;;5017860;28;20061;-78
2023/12/14 04:36:41;;;;;;;13.95;11.88;;;;;;;;;;5025883;28;20049;-78
2023/12/14 04:39:08;;;;;;;17.73;12.02;;;;;;;;;;5001256;28;20057;-78
2023/12/14 04:41:37;;;;;;;12.57;10.77;;;;;;;;;;5013160;28;20057;-78
2023/12/14 04:44:07;;;;;;;12.30;10.63;;;;;;;;;;5022145;28;20054;-78
2023/12/14 04:46:34;;;;;;;23.13;11.00;;;;;;;;;;5012757;28;20049;-78
2023/12/14 04:49:03;;;;;;;12.73;9.70;;;;;;;;;;5012909;28;20066;-78
2023/12/14 04:51:33;;;;;;;13.35;11.43;;;;;;;;;;5008155;28;20061;-78
2023/12/14 04:54:03;;;;;;;12.25;10.80;;;;;;;;;;5010485;28;20506;-78
2023/12/14 04:56:31;;;;;;;13.18;11.63;;;;;;;;;;5033534;28;20063;-78
2023/12/14 04:58:59;;;;;;;16.75;11.93;;;;;;;;;;5010013;28;20045;-78
2023/12/14 05:01:27;;;;;;;13.98;10.13;;;;;;;;;;5028105;28;20033;-78
2023/12/14 05:03:54;;;;;;;14.40;12.32;;;;;;;;;;5015860;28;20056;-78
2023/12/14 05:06:24;;;;;;;15.02;12.57;;;;;;;;;;5031311;28;20166;-78
2023/12/14 05:08:57;;;;;;;16.48;11.43;;;;;;;;;;5011760;28;20057;-78
2023/12/14 05:11:29;;;;;;;19.27;12.50;;;;;;;;;;5040220;28;20057;-78
2023/12/14 05:13:56;;;;;;;16.00;11.18;;;;;;;;;;5015187;28;20071;-78
2023/12/14 05:16:26;;;;;;;16.20;12.57;;;;;;;;;;5040093;28;20053;-78
2023/12/14 05:18:57;;;;;;;13.02;11.20;;;;;;;;;;5013010;28;20041;-78
2023/12/14 05:21:24;;;;;;;13.27;10.75;;;;;;;;;;5043241;28;20053;-78
2023/12/14 05:23:56;;;;;;;16.70;12.70;;;;;;;;;;5007813;28;20056;-78
2023/12/14 05:26:25;;;;;;;14.30;9.85;;;;;;;;;;5045297;28;20052;-78
2023/12/14 05:28:53;;;;;;;12.10;9.05;;;;;;;;;;5012734;28;20042;-78
2023/12/14 05:31:23;;;;;;;15.52;11.27;;;;;;;;;;5011625;28;20052;-78
2023/12/14 05:33:51;;;;;;;13.98;10.75;;;;;;;;;;5030253;28;20061;-78
2023/12/14 05:36:23;;;;;;;14.38;10.85;;;;;;;;;;5028178;28;20056;-78
2023/12/14 05:38:53;;;;;;;18.40;14.50;;;;;;;;;;5014877;28;20056;-78
2023/12/14 05:41:20;;;;;;;20.38;15.80;;;;;;;;;;5011513;28;20057;-78
2023/12/14 05:43:49;;;;;;;21.65;13.80;;;;;;;;;;5013451;28;20064;-78
2023/12/14 05:46:23;;;;;;;19.25;14.25;;;;;;;;;;5015850;28;20041;-78
2023/12/14 05:48:51;;;;;;;20.02;15.25;;;;;;;;;;5034097;28;20053;-78
2023/12/14 05:51:29;;;;;;;19.83;15.32;;;;;;;;;;5013436;28;20048;-78
2023/12/14 05:53:59;;;;;;;22.00;15.50;;;;;;;;;;5029916;28;20530;-78
2023/12/14 05:56:29;;;;;;;17.77;13.57;;;;;;;;;;5044386;28;20060;-78
2023/12/14 05:58:56;;;;;;;16.67;12.88;;;;;;;;;;5032421;28;20546;-78
2023/12/14 06:01:25;;;;;;;16.33;12.70;;;;;;;;;;5031224;28;20136;-78
2023/12/14 06:03:53;;;;;;;22.98;13.57;;;;;;;;;;5047881;28;20045;-78
2023/12/14 06:06:21;;;;;;;16.45;13.75;;;;;;;;;;5015130;28;20057;-78
2023/12/14 06:08:50;;;;;;;14.93;12.88;;;;;;;;;;5010987;28;20491;-78
2023/12/14 06:11:20;;;;;;;17.25;13.52;;;;;;;;;;5027089;28;20056;-78
2023/12/14 06:13:47;;;;;;;13.77;12.25;;;;;;;;;;5006279;28;20057;-78
2023/12/14 06:16:17;;;;;;;13.80;11.85;;;;;;;;;;5047216;28;20742;-78
2023/12/14 06:18:44;;;;;;;14.98;10.40;;;;;;;;;;5009886;28;20053;-78
2023/12/14 06:21:15;;;;;;;13.45;10.45;;;;;;;;;;5030794;28;20049;-78
2023/12/14 06:23:44;;;;;;;13.25;10.75;;;;;;;;;;5021078;28;20068;-78
2023/12/14 06:26:11;;;;;;;16.25;12.32;;;;;;;;;;5026303;28;20049;-78
2023/12/14 06:28:39;;;;;;;16.25;11.32;;;;;;;;;;5045518;28;20044;-78
2023/12/14 06:31:07;;;;;;;14.65;12.23;;;;;;;;;;5010912;28;20415;-78
2023/12/14 06:33:35;;;;;;;14.77;12.27;;;;;;;;;;5013045;28;20415;-78
2023/12/14 06:36:04;;;;;;;15.40;12.80;;;;;;;;;;5023716;28;20053;-78
2023/12/14 06:38:35;;;;;;;14.43;12.15;;;;;;;;;;5025359;28;20044;-78
2023/12/14 06:41:09;;;;;;;15.85;12.30;;;;;;;;;;5013685;28;20052;-78
2023/12/14 06:43:40;;;;;;;13.52;12.02;;;;;;;;;;5008427;28;20072;-78
2023/12/14 06:46:08;;;;;;;13.50;10.85;;;;;;;;;;5024364;28;20068;-78
2023/12/14 06:48:37;;;;;;;14.57;11.57;;;;;;;;;;5011454;28;20064;-78
2023/12/14 06:51:09;;;;;;;12.27;10.70;;;;;;;;;;5018607;28;20545;-78
2023/12/14 06:53:43;;;;;;;12.30;10.13;;;;;;;;;;5031965;28;20434;-78
2023/12/14 06:56:10;;;;;;;13.18;10.13;;;;;;;;;;5024383;28;20068;-78
2023/12/14 06:58:38;;;;;;;15.48;12.05;;;;;;;;;;5011570;28;20058;-78
2023/12/14 07:01:05;;;;;;;16.63;12.98;;;;;;;;;;5026873;28;20051;-78
2023/12/14 07:03:37;;;;;;;15.85;12.93;;;;;;;;;;5021973;28;20068;-78
2023/12/14 07:06:07;;;;;;;15.32;13.15;;;;;;;;;;5025765;28;20056;-78
2023/12/14 07:08:37;;;;;;;17.55;13.18;;;;;;;;;;5015690;28;20056;-78
2023/12/14 07:11:08;;;;;;;14.82;11.63;;;;;;;;;;5046140;28;20388;-78
2023/12/14 07:13:37;;;;;;;18.08;11.73;;;;;;;;;;5015442;28;20049;-79
2023/12/14 07:16:06;;;;;;;18.70;11.57;;;;;;;;;;5029042;28;20036;-78
2023/12/14 07:18:33;;;;;;;16.33;13.02;;;;;;;;;;5011249;28;20650;-78
2023/12/14 07:21:00;;;;;;;15.18;12.55;;;;;;;;;;5028645;28;20053;-78
2023/12/14 07:23:27;;;;;;;14.90;11.70;;;;;;;;;;5011812;28;20052;-78
2023/12/14 07:25:55;;;;;;;15.80;12.07;;;;;;;;;;5008564;28;20057;-84
2023/12/14 10:38:03;;;;;;;11.63;9.50;;;;;;;;;;4107835;22;20936;-83
2023/12/14 12:52:32;;;;;;;7.95;5.82;;;;;;;;;;5083496;22;20053;-83
2023/12/14 12:55:00;;;;;;;6.22;4.50;;;;;;;;;;5011208;28;20493;-84
2023/12/14 12:57:29;;;;;;;6.07;4.10;;;;;;;;;;5015955;28;20044;-84
2023/12/14 12:59:57;;;;;;;5.55;4.95;;;;;;;;;;4982521;28;20053;-84
2023/12/14 15:32:47;;;;;;;5.88;4.15;;;;;;;;;;4770985;29;20062;-80
2023/12/14 15:35:20;;;;;;;6.57;5.22;;;;;;;;;;4863698;28;20056;-80
2023/12/14 15:37:47;;;;;;;6.60;5.35;;;;;;;;;;5005140;28;20508;-79
2023/12/14 15:40:17;;;;;;;6.03;4.75;;;;;;;;;;4994531;28;20048;-79
2023/12/14 15:42:44;;;;;;;7.15;4.97;;;;;;;;;;5013044;28;20046;-79
2023/12/14 15:45:14;;;;;;;8.18;5.55;;;;;;;;;;4982881;28;20060;-79
2023/12/14 15:47:41;;;;;;;8.38;5.78;;;;;;;;;;5015673;28;20049;-79
2023/12/14 15:50:15;;;;;;;6.93;5.32;;;;;;;;;;5002064;28;20046;-79
2023/12/14 15:52:42;;;;;;;8.93;5.47;;;;;;;;;;5013442;28;20046;-79
2023/12/14 15:55:13;;;;;;;8.50;5.57;;;;;;;;;;4998556;28;20061;-79
2023/12/14 15:57:40;;;;;;;8.90;5.53;;;;;;;;;;4997797;28;20048;-79
2023/12/14 16:00:09;;;;;;;6.32;5.20;;;;;;;;;;4998249;28;20057;-80
2023/12/14 16:02:39;;;;;;;6.78;5.18;;;;;;;;;;5008561;28;20037;-79
2023/12/14 16:05:07;;;;;;;5.88;5.28;;;;;;;;;;4984459;28;20053;-79
2023/12/14 16:07:36;;;;;;;6.03;4.38;;;;;;;;;;5011111;28;20038;-79
2023/12/14 16:10:04;;;;;;;4.72;3.92;;;;;;;;;;4975438;28;20076;-79
2023/12/14 16:12:34;;;;;;;5.93;3.65;;;;;;;;;;4992786;28;20049;-79
2023/12/14 16:15:03;;;;;;;4.45;3.05;;;;;;;;;;4976891;28;20063;-79
2023/12/14 16:17:31;;;;;;;5.82;3.53;;;;;;;;;;4977240;28;20065;-79
2023/12/14 16:19:58;;;;;;;6.25;4.75;;;;;;;;;;5014324;28;20057;-79
2023/12/14 16:22:28;;;;;;;6.32;4.28;;;;;;;;;;5012115;28;20034;-79
2023/12/14 16:25:00;;;;;;;9.95;5.43;;;;;;;;;;5013943;28;20500;-79
2023/12/14 16:27:27;;;;;;;5.50;3.80;;;;;;;;;;4997354;28;20077;-79
2023/12/14 16:29:54;;;;;;;8.07;4.10;;;;;;;;;;4993138;28;20054;-79
2023/12/14 16:32:21;;;;;;;8.00;4.45;;;;;;;;;;4970808;28;20041;-79
2023/12/14 16:34:51;;;;;;;5.82;3.47;;;;;;;;;;4993672;28;20050;-79
2023/12/14 16:37:18;;;;;;;5.70;4.68;;;;;;;;;;4995409;28;20073;-79
2023/12/14 16:39:49;;;;;;;5.50;3.80;;;;;;;;;;5011802;28;20044;-79
2023/12/14 16:42:21;;;;;;;5.20;4.70;;;;;;;;;;4986196;28;20057;-79
2023/12/14 16:44:48;;;;;;;8.35;5.15;;;;;;;;;;4992476;28;20045;-79
2023/12/14 16:47:15;;;;;;;5.55;4.25;;;;;;;;;;5007597;28;20046;-79
2023/12/14 16:49:42;;;;;;;7.32;5.30;;;;;;;;;;5013587;28;20050;-79
2023/12/14 16:52:10;;;;;;;5.03;3.88;;;;;;;;;;5010922;28;20523;-79
2023/12/14 16:54:40;;;;;;;5.50;3.70;;;;;;;;;;4995835;28;20527;-79
2023/12/14 16:57:10;;;;;;;7.13;4.93;;;;;;;;;;5030157;28;20550;-79
2023/12/14 16:59:39;;;;;;;4.25;3.85;;;;;;;;;;4993197;28;20053;-79
2023/12/14 17:02:06;;;;;;;7.80;4.28;;;;;;;;;;5004438;28;20045;-79
2023/12/14 17:04:40;;;;;;;6.28;4.15;;;;;;;;;;4980155;28;20053;-78
2023/12/14 17:07:09;;;;;;;5.47;4.65;;;;;;;;;;5013341;28;20046;-78
2023/12/14 17:09:36;;;;;;;4.40;3.15;;;;;;;;;;4980134;28;20053;-78
2023/12/14 17:12:05;;;;;;;5.00;3.50;;;;;;;;;;5010330;28;20042;-78
2023/12/14 17:14:34;;;;;;;8.85;4.25;;;;;;;;;;5010962;28;20038;-78
2023/12/14 17:17:03;;;;;;;7.03;3.95;;;;;;;;;;4979103;28;20065;-78
2023/12/14 17:19:35;;;;;;;5.38;3.53;;;;;;;;;;4999846;28;20523;-79
2023/12/14 17:22:07;;;;;;;5.05;4.47;;;;;;;;;;4990629;28;20056;-79
2023/12/14 17:24:39;;;;;;;5.40;4.85;;;;;;;;;;4980390;28;20053;-79
2023/12/14 17:27:06;;;;;;;5.45;4.35;;;;;;;;;;5013305;28;20048;-79
2023/12/14 17:29:33;;;;;;;6.18;4.43;;;;;;;;;;4994079;28;20046;-79
2023/12/14 17:32:01;;;;;;;5.78;3.72;;;;;;;;;;5010191;28;20393;-79
2023/12/14 17:34:29;;;;;;;5.07;4.30;;;;;;;;;;5000285;28;20543;-79
2023/12/14 17:36:59;;;;;;;3.85;3.53;;;;;;;;;;4987055;28;20488;-79
2023/12/14 17:39:31;;;;;;;3.45;2.85;;;;;;;;;;4993021;28;20061;-78
2023/12/14 17:41:59;;;;;;;3.22;2.92;;;;;;;;;;4976051;28;20053;-79
2023/12/14 17:44:28;;;;;;;2.97;2.67;;;;;;;;;;4987210;28;20500;-79
2023/12/14 17:46:58;;;;;;;2.60;2.35;;;;;;;;;;4987789;28;20076;-79
2023/12/14 17:49:25;;;;;;;3.72;2.63;;;;;;;;;;4994305;28;20057;-79
2023/12/14 17:51:53;;;;;;;3.00;2.58;;;;;;;;;;4992866;28;20515;-78
2023/12/14 17:54:21;;;;;;;5.13;3.10;;;;;;;;;;5011117;28;20531;-78
2023/12/14 17:56:50;;;;;;;3.70;2.63;;;;;;;;;;4976691;28;20057;-78
2023/12/14 17:59:20;;;;;;;3.90;2.55;;;;;;;;;;4991470;28;20057;-78
2023/12/14 18:01:49;;;;;;;4.03;2.90;;;;;;;;;;4993150;28;20076;-78
2023/12/14 18:04:16;;;;;;;3.17;2.47;;;;;;;;;;4992064;28;20861;-79
2023/12/14 18:06:44;;;;;;;3.67;2.75;;;;;;;;;;4994445;28;20381;-79
2023/12/14 18:09:15;;;;;;;3.33;2.60;;;;;;;;;;4973361;28;20123;-79
2023/12/14 18:11:42;;;;;;;3.65;2.30;;;;;;;;;;4969421;28;20069;-79
2023/12/14 18:14:10;;;;;;;2.42;2.22;;;;;;;;;;5006265;28;20451;-78
2023/12/14 18:16:39;;;;;;;3.63;2.67;;;;;;;;;;5010194;28;20053;-79
2023/12/14 18:19:06;;;;;;;3.55;2.83;;;;;;;;;;4976505;28;20053;-79
2023/12/14 18:21:36;;;;;;;4.32;2.25;;;;;;;;;;4990787;28;20427;-79
2023/12/14 18:24:06;;;;;;;1.95;1.67;;;;;;;;;;4975631;28;20061;-79
2023/12/14 18:26:37;;;;;;;2.75;2.05;;;;;;;;;;5007452;28;20061;-79
2023/12/14 18:29:04;;;;;;;3.45;2.60;;;;;;;;;;5000377;28;20041;-78
2023/12/14 18:31:37;;;;;;;3.40;2.40;;;;;;;;;;5008025;28;20061;-78
2023/12/14 18:34:06;;;;;;;2.33;1.63;;;;;;;;;;4988135;28;20497;-78
2023/12/14 18:36:33;;;;;;;1.90;1.45;;;;;;;;;;5007684;28;20045;-79
2023/12/14 18:39:03;;;;;;;4.82;2.13;;;;;;;;;;5009649;28;20050;-79
2023/12/14 18:41:30;;;;;;;1.50;1.00;;;;;;;;;;5010488;28;20056;-79
2023/12/14 18:43:59;;;;;;;2.80;1.80;;;;;;;;;;4993792;28;20053;-79
2023/12/14 18:46:28;;;;;;;1.60;1.33;;;;;;;;;;5008019;28;20042;-79
2023/12/14 18:49:01;;;;;;;1.95;1.60;;;;;;;;;;4983728;28;20739;-79
2023/12/14 18:51:30;;;;;;;2.10;1.88;;;;;;;;;;4988800;28;20877;-79
2023/12/14 18:53:57;;;;;;;2.17;1.67;;;;;;;;;;4991394;28;20041;-79
2023/12/14 18:56:25;;;;;;;2.80;1.88;;;;;;;;;;4981543;28;20076;-79
2023/12/14 18:58:52;;;;;;;3.25;1.88;;;;;;;;;;5008678;28;20050;-78
2023/12/14 19:01:20;;;;;;;2.67;1.73;;;;;;;;;;4988216;28;20512;-78
2023/12/14 19:03:50;;;;;;;2.33;1.63;;;;;;;;;;4978405;28;20034;-78
2023/12/14 19:06:20;;;;;;;3.60;1.38;;;;;;;;;;5005219;28;20366;-78
2023/12/14 19:08:47;;;;;;;2.05;1.40;;;;;;;;;;5012380;28;20404;-78
2023/12/14 19:11:17;;;;;;;2.45;1.98;;;;;;;;;;5013678;28;20049;-79
2023/12/14 19:13:45;;;;;;;2.67;2.33;;;;;;;;;;4993448;28;20046;-79
2023/12/14 19:16:12;;;;;;;2.17;1.60;;;;;;;;;;4995992;28;20053;-79
2023/12/14 19:18:41;;;;;;;3.80;1.92;;;;;;;;;;5009215;28;20526;-79
2023/12/14 19:21:18;;;;;;;2.50;1.90;;;;;;;;;;4994825;28;20507;-79
2023/12/14 19:23:45;;;;;;;2.80;1.70;;;;;;;;;;4994865;28;20073;-79
2023/12/14 19:26:16;;;;;;;3.00;1.83;;;;;;;;;;4990997;28;20468;-79
2023/12/14 19:28:44;;;;;;;3.78;2.45;;;;;;;;;;5011253;28;20539;-79
2023/12/14 19:31:11;;;;;;;2.70;2.00;;;;;;;;;;5010507;28;20046;-79
2023/12/14 19:33:42;;;;;;;2.20;1.92;;;;;;;;;;4981077;28;20057;-79
2023/12/14 19:36:12;;;;;;;2.75;2.38;;;;;;;;;;4994521;28;20396;-79
2023/12/14 19:38:42;;;;;;;3.63;3.03;;;;;;;;;;4995296;28;20415;-79
2023/12/14 19:41:14;;;;;;;2.42;2.03;;;;;;;;;;4978642;28;20053;-79
2023/12/14 19:43:44;;;;;;;3.72;2.78;;;;;;;;;;4988741;28;20065;-79
2023/12/14 19:46:15;;;;;;;3.47;2.22;;;;;;;;;;5011049;28;20049;-79
2023/12/14 19:48:44;;;;;;;4.00;2.88;;;;;;;;;;4994868;28;20062;-79
2023/12/14 19:51:13;;;;;;;4.22;2.75;;;;;;;;;;4995770;28;20052;-79
2023/12/14 19:53:45;;;;;;;4.72;3.53;;;;;;;;;;5013736;28;20068;-79
2023/12/14 19:56:15;;;;;;;4.90;4.40;;;;;;;;;;4972016;28;20070;-79
2023/12/14 19:58:45;;;;;;;4.43;3.75;;;;;;;;;;5013078;28;20476;-79
2023/12/14 20:01:14;;;;;;;7.38;6.68;;;;;;;;;;4999726;28;20054;-79
2023/12/14 20:03:41;;;;;;;3.88;2.92;;;;;;;;;;4989106;28;20046;-79
2023/12/14 20:06:20;;;;;;;6.90;4.38;;;;;;;;;;4982005;28;20060;-79
2023/12/14 20:08:49;;;;;;;5.03;3.00;;;;;;;;;;4992711;28;20066;-79
2023/12/14 20:11:18;;;;;;;4.15;2.88;;;;;;;;;;4992498;28;20500;-79
2023/12/14 20:13:48;;;;;;;3.55;3.25;;;;;;;;;;4992557;28;20054;-79
2023/12/14 20:16:17;;;;;;;5.22;2.72;;;;;;;;;;4979985;28;20057;-79
2023/12/14 20:18:45;;;;;;;2.80;2.03;;;;;;;;;;4981096;28;20050;-79
2023/12/14 20:21:13;;;;;;;7.53;5.90;;;;;;;;;;4981540;28;20393;-79
2023/12/14 20:23:43;;;;;;;5.32;3.33;;;;;;;;;;4992043;28;20053;-79
2023/12/14 20:26:20;;;;;;;5.45;3.60;;;;;;;;;;4989964;28;20049;-79
2023/12/14 20:28:49;;;;;;;16.55;14.65;;;;;;;;;;5000600;28;20058;-79
2023/12/14 20:31:19;;;;;;;5.40;4.40;;;;;;;;;;5009844;28;20061;-79
2023/12/14 20:33:46;;;;;;;5.20;4.00;;;;;;;;;;4993079;28;20053;-79
2023/12/14 20:36:15;;;;;;;5.85;5.18;;;;;;;;;;5006779;28;20409;-79
2023/12/14 20:38:45;;;;;;;4.65;3.83;;;;;;;;;;5011798;28;20126;-79
2023/12/14 20:41:13;;;;;;;3.53;3.22;;;;;;;;;;5003972;28;20053;-79
2023/12/14 20:43:40;;;;;;;7.47;3.50;;;;;;;;;;5045236;22;20041;-83
2023/12/14 20:46:08;;;;;;;4.10;3.17;;;;;;;;;;5024290;28;20068;-82
2023/12/14 20:48:37;;;;;;;4.03;2.58;;;;;;;;;;5042004;28;20519;-82
2023/12/14 20:51:05;;;;;;;6.88;2.92;;;;;;;;;;5003745;28;20053;-83
2023/12/14 20:53:34;;;;;;;6.18;5.25;;;;;;;;;;5009690;28;20068;-83
2023/12/14 20:56:01;;;;;;;6.32;4.18;;;;;;;;;;5027714;28;20054;-83
2023/12/14 20:58:29;;;;;;;4.78;3.92;;;;;;;;;;5024079;28;20041;-83
2023/12/14 21:00:57;;;;;;;4.95;3.88;;;;;;;;;;5014754;28;20068;-83
2023/12/14 21:03:25;;;;;;;3.20;2.60;;;;;;;;;;5040207;28;20052;-83
2023/12/14 21:05:52;;;;;;;4.82;3.33;;;;;;;;;;5008795;28;20392;-82
2023/12/14 21:08:19;;;;;;;5.50;2.80;;;;;;;;;;5009101;28;20042;-83
2023/12/14 21:10:48;;;;;;;4.78;3.45;;;;;;;;;;5002876;28;20049;-83
2023/12/14 21:13:16;;;;;;;4.38;3.03;;;;;;;;;;5046601;28;20045;-82
2023/12/14 21:15:43;;;;;;;5.55;3.60;;;;;;;;;;5016927;28;20038;-83
2023/12/14 21:18:10;;;;;;;5.47;2.95;;;;;;;;;;5001479;28;20057;-83
2023/12/14 21:20:38;;;;;;;5.95;3.45;;;;;;;;;;5004224;28;20038;-83
2023/12/14 21:23:07;;;;;;;4.10;3.45;;;;;;;;;;5018646;28;20053;-83
2023/12/14 21:25:40;;;;;;;5.90;3.38;;;;;;;;;;5021325;28;20060;-83
2023/12/14 21:28:08;;;;;;;3.83;2.92;;;;;;;;;;5020852;28;20049;-83
2023/12/14 21:30:35;;;;;;;4.43;2.05;;;;;;;;;;5004750;28;20416;-83
2023/12/14 21:33:02;;;;;;;5.05;4.40;;;;;;;;;;5034961;28;20050;-83
2023/12/14 21:35:30;;;;;;;4.07;3.42;;;;;;;;;;5038852;28;20049;-83
2023/12/14 21:37:58;;;;;;;4.50;3.55;;;;;;;;;;5005652;28;20057;-83
2023/12/14 21:40:26;;;;;;;3.33;3.03;;;;;;;;;;5020894;28;20056;-83
2023/12/14 21:42:53;;;;;;;4.10;3.13;;;;;;;;;;5004820;28;20052;-83
2023/12/14 21:45:22;;;;;;;4.10;3.15;;;;;;;;;;5020981;28;20060;-83
2023/12/14 21:47:49;;;;;;;3.88;2.75;;;;;;;;;;5019007;28;20060;-83
2023/12/14 21:50:16;;;;;;;3.15;2.35;;;;;;;;;;5013209;28;20075;-83
2023/12/14 21:52:46;;;;;;;6.72;4.75;;;;;;;;;;5018826;28;20061;-83
2023/12/14 21:55:14;;;;;;;7.03;3.72;;;;;;;;;;5037632;28;20048;-83
2023/12/14 21:57:41;;;;;;;9.05;4.53;;;;;;;;;;5005389;28;20053;-83
2023/12/14 22:00:09;;;;;;;6.03;4.47;;;;;;;;;;5039463;28;20048;-83
2023/12/14 22:02:38;;;;;;;5.00;4.05;;;;;;;;;;5002751;28;20049;-83
2023/12/14 22:05:05;;;;;;;5.75;3.60;;;;;;;;;;5037279;28;21117;-83
2023/12/14 22:07:33;;;;;;;7.47;4.47;;;;;;;;;;5003846;28;20049;-83
2023/12/14 22:10:03;;;;;;;5.10;4.25;;;;;;;;;;5005414;28;20053;-83
2023/12/14 22:12:30;;;;;;;4.32;3.90;;;;;;;;;;5019697;28;20049;-83
2023/12/14 22:14:57;;;;;;;4.45;2.83;;;;;;;;;;5039975;28;20038;-83
2023/12/14 22:17:24;;;;;;;5.03;4.05;;;;;;;;;;5021298;28;20049;-83
2023/12/14 22:19:53;;;;;;;4.38;3.90;;;;;;;;;;5020029;28;20056;-83
2023/12/14 22:22:20;;;;;;;5.30;3.88;;;;;;;;;;5004900;28;20065;-83
2023/12/14 22:24:48;;;;;;;4.32;3.92;;;;;;;;;;5019970;28;20064;-83
2023/12/14 22:27:16;;;;;;;4.97;3.28;;;;;;;;;;5040379;28;20057;-83
2023/12/14 22:29:43;;;;;;;6.28;4.82;;;;;;;;;;5021994;28;20516;-82
2023/12/14 22:32:11;;;;;;;7.05;4.55;;;;;;;;;;5024376;28;20053;-83
2023/12/14 22:34:38;;;;;;;6.55;4.72;;;;;;;;;;5012682;28;20056;-83